Time;durP1;ratioP1;P1;durP2;ratioP2;P2;SDS_P1;SDS_P2;PMS_P1;PMS_P2;Temp;Humidity;BMP_temperature;BMP_pressure;BME280_temperature;BME280_humidity;BME280_pressure;Samples;Min_cycle;Max_cycle;Signal;HPM_P1;HPM_P2
2023/02/05 00:01:54;;;;;;;5.40;3.88;;;;;;;-4.96;75.80;93908.69;5015333;28;20042;-79
2023/02/05 00:04:20;;;;;;;4.70;3.72;;;;;;;-4.96;75.13;93891.31;5016804;28;20022;-79
2023/02/05 00:06:45;;;;;;;5.50;4.40;;;;;;;-4.82;74.42;93891.97;5017520;28;20376;-78
2023/02/05 00:09:11;;;;;;;4.28;3.88;;;;;;;-4.88;72.78;93878.06;5015949;28;20049;-79
2023/02/05 00:11:36;;;;;;;8.48;5.03;;;;;;;-4.82;73.02;93896.38;5022957;28;20046;-77
2023/02/05 00:14:02;;;;;;;4.68;3.92;;;;;;;-5.13;72.67;93858.41;5016606;28;20050;-78
2023/02/05 00:16:27;;;;;;;5.85;4.35;;;;;;;-4.93;72.79;93900.50;5013079;28;20026;-77
2023/02/05 00:18:53;;;;;;;5.95;4.25;;;;;;;-4.89;72.36;93893.84;5013490;28;20469;-78
2023/02/05 00:21:20;;;;;;;5.35;3.55;;;;;;;-4.80;72.06;93905.53;5013681;28;20043;-78
2023/02/05 00:23:46;;;;;;;3.85;3.42;;;;;;;-4.73;71.48;93901.06;5016275;28;20046;-77
2023/02/05 00:26:13;;;;;;;9.50;4.85;;;;;;;-4.73;70.23;93900.28;5014557;28;20516;-78
2023/02/05 00:28:39;;;;;;;4.68;4.18;;;;;;;-4.69;69.69;93901.44;5014810;28;20045;-78
2023/02/05 00:31:10;;;;;;;5.13;4.07;;;;;;;-4.79;69.11;93896.75;5013903;28;20033;-78
2023/02/05 00:33:36;;;;;;;6.38;4.00;;;;;;;-4.95;68.76;93876.56;5010411;28;20031;-77
2023/02/05 00:36:02;;;;;;;6.00;4.10;;;;;;;-4.82;68.43;93907.53;5015616;28;20062;-78
2023/02/05 00:38:28;;;;;;;7.18;3.95;;;;;;;-4.91;67.96;93877.72;5018374;28;20980;-79
2023/02/05 00:40:53;;;;;;;6.03;4.25;;;;;;;-5.04;67.40;93883.84;5014633;28;20045;-78
2023/02/05 00:43:19;;;;;;;4.43;3.13;;;;;;;-4.74;67.11;93909.88;5013745;28;20561;-78
2023/02/05 00:45:44;;;;;;;4.90;3.92;;;;;;;-4.85;66.31;93917.56;5013815;28;20038;-78
2023/02/05 00:48:09;;;;;;;4.00;3.60;;;;;;;-4.93;66.65;93914.22;5009203;28;21241;-79
2023/02/05 00:50:35;;;;;;;9.95;4.50;;;;;;;-5.35;66.88;93863.97;5013843;28;20038;-79
2023/02/05 00:53:00;;;;;;;6.18;4.28;;;;;;;-5.17;66.75;93909.88;5009648;28;20586;-77
2023/02/05 00:55:26;;;;;;;5.07;4.43;;;;;;;-4.93;66.14;93923.84;5009403;28;20397;-79
2023/02/05 00:57:51;;;;;;;8.27;5.53;;;;;;;-4.88;66.28;93916.22;5008739;28;20129;-78
2023/02/05 01:00:17;;;;;;;7.68;4.20;;;;;;;-4.69;66.08;93928.19;5010604;28;20054;-78
2023/02/05 01:02:43;;;;;;;7.82;5.15;;;;;;;-5.14;67.77;93882.75;5013317;28;20054;-79
2023/02/05 01:05:09;;;;;;;5.35;4.10;;;;;;;-4.98;68.03;93913.31;5011954;28;20376;-78
2023/02/05 01:07:34;;;;;;;4.68;4.28;;;;;;;-4.89;68.22;93917.22;5000714;28;20042;-78
2023/02/05 01:09:59;;;;;;;4.30;3.88;;;;;;;-5.31;68.63;93888.47;5007001;28;20601;-79
2023/02/05 01:12:25;;;;;;;15.48;9.23;;;;;;;-5.11;69.80;93918.59;5007263;28;20026;-79
2023/02/05 01:14:51;;;;;;;7.88;4.90;;;;;;;-5.10;69.19;93927.97;5009533;28;20038;-77
2023/02/05 01:17:16;;;;;;;6.65;5.35;;;;;;;-4.91;69.22;93925.19;5004498;28;20564;-76
2023/02/05 01:19:42;;;;;;;8.23;6.25;;;;;;;-4.71;68.48;93934.56;5003988;28;20038;-78
2023/02/05 01:22:07;;;;;;;7.78;5.57;;;;;;;-4.88;68.04;93895.44;5001085;28;20035;-77
2023/02/05 01:24:33;;;;;;;7.65;4.00;;;;;;;-4.82;67.30;93923.09;5005910;28;20034;-77
2023/02/05 01:26:59;;;;;;;8.00;4.63;;;;;;;-5.16;72.12;93905.50;5004858;28;20102;-77
2023/02/05 01:29:25;;;;;;;5.35;4.25;;;;;;;-4.96;70.83;93927.63;5004467;28;20042;-77
2023/02/05 01:31:51;;;;;;;5.57;4.60;;;;;;;-4.99;69.48;93917.69;5002734;28;20038;-77
2023/02/05 01:34:17;;;;;;;5.63;4.55;;;;;;;-4.98;68.92;93927.06;5000735;28;20037;-76
2023/02/05 01:36:42;;;;;;;7.97;5.70;;;;;;;-5.07;68.42;93930.13;5001069;28;20054;-78
2023/02/05 01:39:08;;;;;;;7.97;4.38;;;;;;;-5.23;68.68;93891.81;5000538;28;20058;-77
2023/02/05 01:41:34;;;;;;;5.20;4.05;;;;;;;-5.00;68.75;93925.69;4999893;28;20038;-77
2023/02/05 01:44:07;;;;;;;5.55;4.70;;;;;;;-5.00;67.38;93929.09;5005045;28;20039;-77
2023/02/05 01:46:34;;;;;;;6.80;4.22;;;;;;;-5.02;68.45;93938.06;5001449;28;20041;-77
2023/02/05 01:49:01;;;;;;;7.65;4.75;;;;;;;-5.14;68.30;93919.03;4998084;28;20835;-78
2023/02/05 01:51:29;;;;;;;7.05;5.03;;;;;;;-5.12;68.33;93912.63;5000640;28;20050;-77
2023/02/05 01:53:55;;;;;;;10.32;5.80;;;;;;;-5.01;68.82;93913.72;5004376;28;20097;-77
2023/02/05 01:56:29;;;;;;;6.32;4.57;;;;;;;-4.82;68.39;93943.06;5002946;28;20465;-78
2023/02/05 01:58:57;;;;;;;9.25;5.65;;;;;;;-4.71;67.96;93950.94;4998586;28;20036;-78
2023/02/05 02:01:24;;;;;;;10.40;6.80;;;;;;;-4.85;67.50;93949.50;5002965;28;20463;-77
2023/02/05 02:03:52;;;;;;;10.02;4.68;;;;;;;-5.08;69.45;93921.59;5003410;28;20115;-78
2023/02/05 02:06:18;;;;;;;6.07;4.55;;;;;;;-4.87;67.85;93951.50;4999417;28;20038;-77
2023/02/05 02:08:43;;;;;;;7.78;5.13;;;;;;;-5.04;68.14;93948.69;5008733;28;20102;-77
2023/02/05 02:11:11;;;;;;;7.18;4.63;;;;;;;-5.16;67.47;93927.03;5009161;28;20065;-78
2023/02/05 02:13:38;;;;;;;6.65;5.60;;;;;;;-4.84;67.55;93948.50;5009838;28;20104;-79
2023/02/05 02:16:05;;;;;;;6.40;4.40;;;;;;;-4.97;65.59;93951.97;5006513;28;20034;-78
2023/02/05 02:18:32;;;;;;;4.82;3.97;;;;;;;-5.09;67.57;93942.53;5008002;28;20124;-77
2023/02/05 02:21:24;;;;;;;5.13;4.22;;;;;;;-5.02;66.94;93961.41;5003842;28;20034;-77
2023/02/05 02:24:21;;;;;;;5.15;4.25;;;;;;;-4.90;66.93;93957.91;4998771;28;20047;-78
2023/02/05 02:27:00;;;;;;;5.63;4.40;;;;;;;-4.80;65.37;93965.22;5006749;28;20721;-78
2023/02/05 02:29:43;;;;;;;5.47;3.80;;;;;;;-5.38;65.53;93928.44;5006493;28;20094;-78
2023/02/05 02:32:23;;;;;;;5.53;4.28;;;;;;;-4.99;65.46;93961.00;5004512;28;20031;-77
2023/02/05 02:35:10;;;;;;;5.38;4.75;;;;;;;-4.99;64.74;93948.84;5006586;28;20070;-77
2023/02/05 02:37:52;;;;;;;6.28;4.38;;;;;;;-4.83;64.18;93947.47;5001643;28;20050;-78
2023/02/05 02:40:34;;;;;;;6.38;4.07;;;;;;;-4.84;63.90;93960.66;5004197;28;20029;-77
2023/02/05 02:43:09;;;;;;;6.15;4.65;;;;;;;-4.97;64.32;93969.34;5001709;28;20025;-77
2023/02/05 02:45:40;;;;;;;3.90;3.60;;;;;;;-5.21;64.95;93960.59;5000002;28;20113;-78
2023/02/05 02:48:06;;;;;;;4.80;3.95;;;;;;;-5.15;65.39;93974.50;5014755;28;20050;-77
2023/02/05 02:50:40;;;;;;;5.90;4.13;;;;;;;-5.47;72.13;93987.53;5001606;28;20038;-77
2023/02/05 02:53:28;;;;;;;7.15;5.68;;;;;;;-5.61;71.69;93975.63;5005460;28;20034;-76
2023/02/05 02:55:55;;;;;;;5.25;4.22;;;;;;;-5.55;70.97;93979.97;5003440;28;20042;-78
2023/02/05 02:58:28;;;;;;;4.53;3.85;;;;;;;-5.76;70.67;93962.19;5003044;28;20152;-78
2023/02/05 03:00:55;;;;;;;5.38;4.55;;;;;;;-5.84;70.19;93970.19;5002455;28;20009;-77
2023/02/05 03:03:25;;;;;;;5.97;4.50;;;;;;;-5.82;70.92;93989.72;5004828;28;20579;-77
2023/02/05 03:05:55;;;;;;;5.47;4.10;;;;;;;-5.98;69.74;93935.81;5005063;28;20042;-77
2023/02/05 03:08:32;;;;;;;4.45;4.05;;;;;;;-5.83;70.04;93982.16;5002080;28;20034;-78
2023/02/05 03:11:00;;;;;;;7.53;3.85;;;;;;;-6.13;71.05;93992.25;5004332;28;20042;-77
2023/02/05 03:13:25;;;;;;;5.15;4.00;;;;;;;-6.36;71.25;93956.53;4999805;28;20026;-77
2023/02/05 03:15:51;;;;;;;6.95;3.95;;;;;;;-6.27;70.78;94003.66;4987695;28;20035;-78
2023/02/05 03:18:18;;;;;;;6.32;4.38;;;;;;;-6.57;74.41;93953.41;5006177;28;20038;-78
2023/02/05 03:20:49;;;;;;;5.88;4.72;;;;;;;-6.27;72.50;93990.72;5005552;28;20312;-77
2023/02/05 03:23:15;;;;;;;6.50;4.53;;;;;;;-6.39;71.97;93967.28;5002344;28;20066;-77
2023/02/05 03:25:40;;;;;;;6.22;4.25;;;;;;;-5.91;70.93;94006.53;5004708;28;20065;-76
2023/02/05 03:28:06;;;;;;;9.38;7.10;;;;;;;-5.83;69.41;93987.34;5002833;28;20057;-76
2023/02/05 03:31:00;;;;;;;10.45;6.40;;;;;;;-5.74;68.41;94006.81;5004242;28;20092;-78
2023/02/05 03:33:31;;;;;;;12.90;7.00;;;;;;;-5.75;68.07;94012.97;5007759;28;20422;-78
2023/02/05 03:36:05;;;;;;;7.65;5.53;;;;;;;-5.54;68.27;94004.09;5000862;28;20058;-77
2023/02/05 03:38:52;;;;;;;6.60;4.15;;;;;;;-5.51;67.40;94007.06;5004829;28;20314;-77
2023/02/05 03:42:17;;;;;;;5.45;4.72;;;;;;;-5.62;67.66;94005.16;5001290;28;20042;-78
2023/02/05 03:44:55;;;;;;;9.25;6.82;;;;;;;-5.56;66.58;94008.69;5002047;28;20050;-78
2023/02/05 03:47:33;;;;;;;8.70;4.97;;;;;;;-5.83;69.77;94008.06;5002489;28;20038;-78
2023/02/05 03:50:08;;;;;;;7.05;5.38;;;;;;;-5.98;73.63;94004.94;5011419;28;20045;-76
2023/02/05 03:52:50;;;;;;;4.85;3.88;;;;;;;-5.93;75.24;94013.69;5005816;28;20045;-78
2023/02/05 03:55:45;;;;;;;10.90;5.70;;;;;;;-5.84;71.66;94016.81;5002791;28;20025;-77
2023/02/05 03:58:18;;;;;;;11.63;7.85;;;;;;;-5.76;70.42;94016.59;5004817;28;20042;-79
2023/02/05 04:00:43;;;;;;;9.55;5.57;;;;;;;-5.90;69.37;94020.22;5002021;28;20049;-79
2023/02/05 04:03:09;;;;;;;6.18;4.03;;;;;;;-6.05;70.05;94002.38;5003599;28;20124;-76
2023/02/05 04:05:35;;;;;;;5.63;4.68;;;;;;;-5.92;73.93;94022.25;5001686;28;20093;-77
2023/02/05 04:08:01;;;;;;;5.85;4.75;;;;;;;-5.76;71.80;94019.19;5002596;28;20038;-78
2023/02/05 04:10:26;;;;;;;13.38;7.97;;;;;;;-5.76;68.75;94011.41;5002790;28;20022;-78
2023/02/05 04:12:51;;;;;;;7.88;6.45;;;;;;;-5.63;68.27;94023.50;5002636;28;20019;-78
2023/02/05 04:15:17;;;;;;;8.55;6.72;;;;;;;-5.78;68.26;93990.91;5001015;28;20061;-77
2023/02/05 04:17:42;;;;;;;5.50;4.88;;;;;;;-5.40;67.56;94028.94;5001373;28;20034;-77
2023/02/05 04:20:08;;;;;;;7.22;6.28;;;;;;;-5.40;67.29;94045.28;5002917;28;20362;-76
2023/02/05 04:22:34;;;;;;;5.07;4.55;;;;;;;-5.39;67.07;94015.75;5005513;28;20039;-77
2023/02/05 04:24:59;;;;;;;6.40;5.18;;;;;;;-5.46;66.78;94012.41;5004712;28;20029;-77
2023/02/05 04:27:24;;;;;;;6.72;5.05;;;;;;;-5.35;67.10;94036.88;5004251;28;20067;-77
2023/02/05 04:29:50;;;;;;;6.57;5.82;;;;;;;-5.53;66.91;94013.47;5000920;28;20069;-78
2023/02/05 04:32:15;;;;;;;10.13;6.40;;;;;;;-5.31;66.86;94033.66;4999840;28;20022;-77
2023/02/05 04:34:41;;;;;;;8.00;5.70;;;;;;;-5.40;66.49;94018.56;5010595;28;20038;-79
2023/02/05 04:37:06;;;;;;;8.35;5.40;;;;;;;-5.19;65.60;94038.97;5009528;28;20050;-77
2023/02/05 04:39:32;;;;;;;8.93;6.18;;;;;;;-5.49;65.72;94005.06;5007300;28;20041;-77
2023/02/05 04:41:57;;;;;;;6.88;5.63;;;;;;;-5.25;65.19;94051.97;5004406;28;20037;-77
2023/02/05 04:44:22;;;;;;;5.90;5.32;;;;;;;-5.54;66.28;94030.81;5005515;28;20038;-77
2023/02/05 04:46:48;;;;;;;9.07;7.50;;;;;;;-5.56;65.73;94040.59;5004550;28;20068;-77
2023/02/05 04:49:13;;;;;;;8.27;6.68;;;;;;;-5.55;66.79;94049.94;5004379;28;20503;-77
2023/02/05 04:51:38;;;;;;;8.15;5.22;;;;;;;-5.65;66.63;94041.03;5001095;28;20026;-77
2023/02/05 04:54:04;;;;;;;9.35;6.95;;;;;;;-5.62;67.46;94020.72;5007057;28;20101;-79
2023/02/05 04:56:29;;;;;;;8.15;4.93;;;;;;;-5.48;66.76;94052.50;5002993;28;20828;-78
2023/02/05 04:58:55;;;;;;;12.13;7.68;;;;;;;-5.58;66.82;94021.06;5001454;28;20601;-78
2023/02/05 05:01:22;;;;;;;10.35;7.70;;;;;;;-5.42;66.26;94042.09;5004703;28;20035;-77
2023/02/05 05:03:48;;;;;;;9.10;6.88;;;;;;;-5.20;66.00;94046.94;5004475;28;20041;-78
2023/02/05 05:06:14;;;;;;;6.90;4.50;;;;;;;-5.66;65.66;94037.66;5002337;28;20038;-77
2023/02/05 05:08:40;;;;;;;6.57;4.85;;;;;;;-5.58;66.77;94047.78;5002282;28;20033;-77
2023/02/05 05:11:07;;;;;;;7.15;5.20;;;;;;;-5.63;66.39;94045.03;5003760;28;20061;-77
2023/02/05 05:13:34;;;;;;;6.75;6.05;;;;;;;-5.45;66.48;94063.25;5002516;28;20042;-77
2023/02/05 05:16:00;;;;;;;6.72;5.20;;;;;;;-5.33;66.17;94060.81;5002265;28;20058;-78
2023/02/05 05:18:25;;;;;;;5.90;3.97;;;;;;;-5.35;66.08;94073.97;5000484;28;20097;-77
2023/02/05 05:20:51;;;;;;;8.20;5.60;;;;;;;-5.28;66.21;94073.13;5003237;28;20627;-78
2023/02/05 05:23:16;;;;;;;6.68;5.22;;;;;;;-5.19;65.47;94082.25;5002007;28;20105;-77
2023/02/05 05:25:46;;;;;;;5.40;4.47;;;;;;;-5.56;65.52;94045.75;5007925;28;20122;-77
2023/02/05 05:28:13;;;;;;;6.82;4.75;;;;;;;-5.51;65.90;94066.66;5008690;28;20057;-77
2023/02/05 05:30:40;;;;;;;6.35;4.88;;;;;;;-5.53;66.25;94089.44;5009596;28;20038;-77
2023/02/05 05:33:05;;;;;;;5.90;4.53;;;;;;;-5.31;66.34;94090.69;5006116;28;20034;-78
2023/02/05 05:35:33;;;;;;;12.77;8.38;;;;;;;-5.71;65.94;94010.78;5003248;28;20030;-77
2023/02/05 05:37:59;;;;;;;12.05;8.65;;;;;;;-5.15;65.56;94099.78;4994488;28;20058;-76
2023/02/05 05:45:58;;;;;;;17.42;10.32;;;;;;;-5.42;64.86;94072.44;5003362;28;20052;-78
2023/02/05 05:48:24;;;;;;;41.05;24.00;;;;;;;-5.24;66.02;94108.81;5003249;28;20042;-78
2023/02/05 05:50:49;;;;;;;15.23;9.90;;;;;;;-5.15;65.46;94115.34;5000175;28;20038;-78
2023/02/05 05:53:15;;;;;;;21.35;13.80;;;;;;;-5.22;65.92;94104.19;5002315;28;20065;-76
2023/02/05 05:55:41;;;;;;;7.30;5.32;;;;;;;-5.26;65.21;94107.41;5000350;28;20113;-77
2023/02/05 05:58:06;;;;;;;27.55;16.42;;;;;;;-5.80;66.16;94064.63;5004463;28;20291;-76
2023/02/05 06:00:32;;;;;;;9.27;7.03;;;;;;;-5.51;66.44;94095.19;5007335;28;21027;-77
2023/02/05 06:02:57;;;;;;;5.80;5.25;;;;;;;-5.29;65.97;94123.41;5004853;28;20038;-77
2023/02/05 06:05:23;;;;;;;7.65;5.18;;;;;;;-5.58;65.53;94063.34;5003641;28;20030;-77
2023/02/05 06:07:48;;;;;;;14.18;11.02;;;;;;;-6.12;66.09;93987.88;5002626;28;20034;-76
2023/02/05 06:10:13;;;;;;;10.43;7.18;;;;;;;-5.23;65.45;94112.19;5000542;28;20034;-76
2023/02/05 06:12:39;;;;;;;6.13;4.68;;;;;;;-5.45;65.49;94128.06;5005029;28;20022;-78
2023/02/05 06:15:05;;;;;;;6.35;5.50;;;;;;;-5.57;66.69;94127.13;5003149;28;20124;-77
2023/02/05 06:17:30;;;;;;;7.75;6.50;;;;;;;-5.39;66.45;94145.38;5010340;28;20557;-76
2023/02/05 06:19:56;;;;;;;10.23;6.82;;;;;;;-5.51;66.88;94147.00;5004454;28;20172;-76
2023/02/05 06:22:21;;;;;;;11.10;8.80;;;;;;;-5.57;67.33;94142.69;5002149;28;20141;-78
2023/02/05 06:24:46;;;;;;;5.90;5.03;;;;;;;-5.60;66.19;94132.69;5002458;28;20022;-77
2023/02/05 06:27:12;;;;;;;7.22;5.93;;;;;;;-5.83;67.04;94151.31;5004219;28;20042;-77
2023/02/05 06:29:37;;;;;;;12.63;9.20;;;;;;;-5.94;67.96;94140.78;5005584;28;20042;-78
2023/02/05 06:32:03;;;;;;;12.45;8.30;;;;;;;-6.11;68.63;94116.34;5010224;28;20599;-78
2023/02/05 06:34:28;;;;;;;7.38;6.15;;;;;;;-5.79;68.30;94170.63;5002445;28;20025;-77
2023/02/05 06:36:54;;;;;;;8.35;6.55;;;;;;;-5.83;68.36;94143.56;5003762;28;20046;-77
2023/02/05 06:39:20;;;;;;;22.70;16.70;;;;;;;-5.57;68.01;94168.59;5005328;28;20042;-77
2023/02/05 06:41:46;;;;;;;6.47;5.63;;;;;;;-5.69;67.64;94180.56;5000737;28;20058;-77
2023/02/05 06:44:12;;;;;;;11.63;8.65;;;;;;;-5.73;68.02;94178.59;5003284;28;20042;-76
2023/02/05 06:46:37;;;;;;;10.38;8.18;;;;;;;-5.71;67.60;94182.56;5001641;28;20120;-76
2023/02/05 06:49:02;;;;;;;10.77;7.70;;;;;;;-5.80;67.89;94179.41;5002417;28;20088;-76
2023/02/05 06:51:28;;;;;;;10.95;6.22;;;;;;;-6.05;68.37;94181.03;5010566;28;20061;-78
2023/02/05 06:53:56;;;;;;;6.45;5.10;;;;;;;-6.01;68.94;94204.78;5001676;28;20026;-77
2023/02/05 06:56:23;;;;;;;7.90;5.40;;;;;;;-6.00;68.71;94201.97;5001793;28;20648;-77
2023/02/05 06:58:48;;;;;;;10.10;6.38;;;;;;;-6.48;69.42;94160.00;4999680;28;20500;-77
2023/02/05 07:01:14;;;;;;;7.10;5.65;;;;;;;-6.14;69.85;94215.13;5002119;28;20084;-77
2023/02/05 07:03:39;;;;;;;7.65;6.47;;;;;;;-6.13;69.71;94189.03;5001569;28;20036;-78
2023/02/05 07:06:05;;;;;;;8.63;6.03;;;;;;;-5.82;68.98;94207.31;5002182;28;20042;-78
2023/02/05 07:08:31;;;;;;;7.18;6.35;;;;;;;-6.07;68.67;94180.47;5000719;28;20038;-77
2023/02/05 07:10:57;;;;;;;10.95;7.13;;;;;;;-5.89;68.78;94216.88;5003802;28;20157;-76
2023/02/05 07:13:22;;;;;;;9.93;6.95;;;;;;;-6.18;68.71;94170.72;4998668;28;20026;-78
2023/02/05 07:15:48;;;;;;;14.70;8.35;;;;;;;-5.92;69.12;94206.16;4999651;28;20293;-76
2023/02/05 07:18:14;;;;;;;14.20;9.07;;;;;;;-5.99;68.78;94187.22;5002858;28;20037;-77
2023/02/05 07:20:39;;;;;;;13.40;8.55;;;;;;;-5.88;68.77;94189.19;5000737;28;20069;-77
2023/02/05 07:23:05;;;;;;;12.57;7.75;;;;;;;-5.66;67.49;94211.25;4996833;28;20053;-79
2023/02/05 07:25:35;;;;;;;24.08;12.82;;;;;;;-5.68;67.90;94212.47;5005937;28;20040;-77
2023/02/05 07:28:01;;;;;;;37.55;20.83;;;;;;;-5.79;67.81;94200.94;5002748;28;20029;-78
2023/02/05 07:30:27;;;;;;;27.70;17.25;;;;;;;-5.67;67.34;94191.53;5002039;28;20046;-78
2023/02/05 07:32:52;;;;;;;27.42;17.27;;;;;;;-5.20;66.53;94221.47;5006306;28;20035;-78
2023/02/05 07:35:17;;;;;;;21.95;12.35;;;;;;;-4.86;65.78;94235.88;5007010;28;20045;-77
2023/02/05 07:37:43;;;;;;;12.50;8.45;;;;;;;-4.84;64.65;94215.72;5002082;28;21001;-77
2023/02/05 07:40:09;;;;;;;16.33;10.27;;;;;;;-4.91;64.74;94223.53;5002185;28;20132;-79
2023/02/05 07:42:34;;;;;;;22.40;13.57;;;;;;;-4.93;64.55;94198.81;5001988;28;20041;-78
2023/02/05 07:44:59;;;;;;;25.25;16.65;;;;;;;-5.00;64.75;94190.25;5002634;28;20034;-78
2023/02/05 07:47:25;;;;;;;26.50;15.57;;;;;;;-4.85;64.68;94195.97;4998948;28;20037;-79
2023/02/05 07:49:50;;;;;;;66.22;31.60;;;;;;;-4.55;64.53;94230.72;5002997;28;20046;-78
2023/02/05 07:52:15;;;;;;;15.93;10.68;;;;;;;-4.37;64.12;94237.00;5008224;28;20099;-79
2023/02/05 07:54:41;;;;;;;21.38;11.90;;;;;;;-4.19;63.39;94250.03;5002457;28;20026;-78
2023/02/05 07:57:06;;;;;;;17.63;11.63;;;;;;;-4.22;63.14;94230.47;4996928;28;20048;-79
2023/02/05 07:59:32;;;;;;;14.63;10.57;;;;;;;-4.05;62.60;94246.34;4996144;28;20037;-77
2023/02/05 08:01:57;;;;;;;23.83;14.40;;;;;;;-4.06;62.11;94240.34;4994901;28;20049;-78
2023/02/05 08:04:22;;;;;;;16.60;11.63;;;;;;;-4.07;62.87;94248.34;4996178;28;20063;-79
2023/02/05 08:06:48;;;;;;;26.92;17.92;;;;;;;-3.88;62.33;94263.00;4999807;28;20026;-78
2023/02/05 08:09:13;;;;;;;23.70;16.02;;;;;;;-4.01;62.71;94250.09;4996409;28;20102;-80
2023/02/05 08:11:39;;;;;;;14.90;8.63;;;;;;;-3.82;62.06;94267.34;5003236;28;20046;-79
2023/02/05 08:14:04;;;;;;;18.10;11.75;;;;;;;-3.89;61.97;94268.38;4999754;28;20061;-77
2023/02/05 08:16:29;;;;;;;22.98;14.05;;;;;;;-3.88;62.35;94255.19;5000888;28;20121;-78
2023/02/05 08:18:55;;;;;;;21.08;11.93;;;;;;;-3.86;62.25;94248.00;4999388;28;20152;-79
2023/02/05 08:21:20;;;;;;;17.92;13.20;;;;;;;-3.61;61.57;94261.72;4993763;28;20501;-78
2023/02/05 08:23:47;;;;;;;13.27;8.93;;;;;;;-3.74;61.15;94263.66;4999587;28;20038;-78
2023/02/05 08:26:14;;;;;;;18.52;9.85;;;;;;;-3.88;62.00;94265.59;4998083;28;20603;-79
2023/02/05 08:28:40;;;;;;;14.75;11.35;;;;;;;-3.77;62.09;94271.91;5003057;28;20149;-78
2023/02/05 08:31:14;;;;;;;20.58;12.20;;;;;;;-3.60;61.63;94268.53;5006739;28;20504;-79
2023/02/05 08:33:40;;;;;;;30.63;17.30;;;;;;;-3.70;61.83;94259.63;5005670;28;20044;-78
2023/02/05 08:36:08;;;;;;;33.67;21.08;;;;;;;-3.64;60.92;94238.78;5004201;28;20137;-77
2023/02/05 08:38:33;;;;;;;11.82;9.10;;;;;;;-3.39;60.60;94276.94;5006137;28;20034;-79
2023/02/05 08:41:03;;;;;;;8.75;7.07;;;;;;;-3.36;60.43;94281.69;4997374;28;20544;-78
2023/02/05 08:43:28;;;;;;;15.88;11.60;;;;;;;-3.45;61.64;94251.78;4994380;28;20030;-79
2023/02/05 08:45:54;;;;;;;16.13;12.65;;;;;;;-3.22;60.08;94262.38;5001207;28;20034;-78
2023/02/05 08:48:19;;;;;;;22.48;14.52;;;;;;;-3.19;59.41;94259.31;4993742;28;20030;-77
2023/02/05 08:50:45;;;;;;;13.30;11.13;;;;;;;-2.99;59.18;94261.69;4993193;28;20173;-78
2023/02/05 08:53:11;;;;;;;16.05;9.30;;;;;;;-3.07;59.71;94262.78;4998249;28;20034;-79
2023/02/05 08:55:36;;;;;;;7.93;5.22;;;;;;;-2.98;58.24;94273.69;4991398;28;20069;-79
2023/02/05 08:58:05;;;;;;;7.60;5.47;;;;;;;-3.18;57.77;94264.31;4996055;28;20747;-78
2023/02/05 09:00:32;;;;;;;13.80;8.60;;;;;;;-3.05;57.61;94252.16;4999787;28;20308;-78
2023/02/05 09:02:57;;;;;;;15.95;10.32;;;;;;;-2.71;57.32;94280.97;4993124;28;20542;-78
2023/02/05 09:05:25;;;;;;;8.50;5.97;;;;;;;-3.27;56.29;94293.44;4999278;28;20030;-78
2023/02/05 09:07:50;;;;;;;4.75;3.90;;;;;;;-3.85;54.71;94272.16;4999830;28;20037;-78
2023/02/05 09:10:17;;;;;;;4.90;4.18;;;;;;;-4.42;55.36;94250.59;4999457;28;20554;-78
2023/02/05 09:12:45;;;;;;;7.10;3.70;;;;;;;-5.13;58.13;94299.25;4997468;28;20018;-77
2023/02/05 09:15:10;;;;;;;3.17;2.85;;;;;;;-5.10;58.10;94301.44;4993385;28;20037;-79
2023/02/05 09:17:36;;;;;;;4.30;3.90;;;;;;;-4.45;58.25;94308.16;4997193;28;20041;-77
2023/02/05 09:20:02;;;;;;;4.10;3.67;;;;;;;-4.22;58.89;94318.00;4992410;28;20153;-77
2023/02/05 09:22:27;;;;;;;7.93;7.18;;;;;;;-4.10;56.56;94316.34;4983101;28;20397;-78
2023/02/05 09:24:52;;;;;;;4.07;2.40;;;;;;;-4.57;56.88;94284.63;4991192;28;20041;-77
2023/02/05 09:27:18;;;;;;;3.15;2.75;;;;;;;-4.53;57.61;94314.38;4985620;28;20061;-78
2023/02/05 09:29:43;;;;;;;4.88;2.90;;;;;;;-4.06;57.43;94317.50;4987403;28;20192;-78
2023/02/05 09:32:09;;;;;;;4.10;3.40;;;;;;;-4.23;57.77;94296.41;4989630;28;20408;-80
2023/02/05 09:34:34;;;;;;;4.05;3.75;;;;;;;-3.91;55.56;94319.78;4988250;28;20524;-80
2023/02/05 09:37:00;;;;;;;5.30;3.92;;;;;;;-3.71;55.96;94331.59;4989644;28;20100;-79
2023/02/05 09:39:25;;;;;;;4.78;3.60;;;;;;;-4.28;55.82;94313.63;4990322;28;20590;-80
2023/02/05 09:41:50;;;;;;;3.88;3.38;;;;;;;-4.23;56.77;94332.78;4989311;28;20465;-79
2023/02/05 09:44:34;;;;;;;5.53;5.00;;;;;;;-3.82;55.15;94327.13;4987549;28;20057;-77
2023/02/05 09:47:23;;;;;;;8.38;7.07;;;;;;;-3.99;54.25;94339.03;4988323;28;20046;-79
2023/02/05 09:50:02;;;;;;;3.25;2.95;;;;;;;-4.45;53.90;94334.91;4987375;28;20076;-78
2023/02/05 09:52:40;;;;;;;4.07;3.08;;;;;;;-4.92;55.24;94335.28;4989874;28;20171;-79
2023/02/05 09:55:27;;;;;;;3.22;2.90;;;;;;;-4.44;54.92;94333.88;4987606;28;20022;-79
2023/02/05 09:57:59;;;;;;;4.40;2.80;;;;;;;-4.54;54.67;94319.78;4989677;28;20056;-79
2023/02/05 10:00:32;;;;;;;2.92;2.33;;;;;;;-4.77;55.39;94304.69;4997061;28;20053;-78
2023/02/05 10:03:12;;;;;;;4.93;2.85;;;;;;;-4.62;54.92;94317.41;4985925;28;20042;-79
2023/02/05 10:06:20;;;;;;;4.65;3.28;;;;;;;-4.13;55.29;94316.72;4987378;28;20039;-78
2023/02/05 10:09:08;;;;;;;5.43;3.25;;;;;;;-4.51;55.99;94332.34;4985350;28;20172;-77
2023/02/05 10:11:53;;;;;;;6.13;4.97;;;;;;;-4.04;53.69;94326.66;4984312;28;20424;-78
2023/02/05 10:14:22;;;;;;;13.98;8.45;;;;;;;-3.78;54.07;94330.88;4986771;28;20512;-79
2023/02/05 10:17:28;;;;;;;6.72;6.07;;;;;;;-3.37;51.60;94334.75;4983432;28;20570;-80
2023/02/05 10:20:02;;;;;;;;;;;;;;;-3.09;51.56;94335.06;4984279;28;20066;-78
2023/02/05 10:22:33;;;;;;;18.27;13.73;;;;;;;-3.51;51.38;94315.06;4987155;28;20360;-80
2023/02/05 10:25:04;;;;;;;12.68;11.35;;;;;;;-3.53;50.67;94322.28;4986281;28;20041;-80
2023/02/05 10:27:51;;;;;;;18.35;14.65;;;;;;;-3.45;50.99;94327.19;4985324;28;20132;-79
2023/02/05 10:30:44;;;;;;;11.45;5.50;;;;;;;-3.46;53.02;94334.19;4984439;28;20038;-78
2023/02/05 10:33:39;;;;;;;4.28;3.72;;;;;;;-3.41;49.98;94336.16;4983997;28;20421;-79
2023/02/05 10:36:08;;;;;;;7.03;3.93;;;;;;;-3.76;50.80;94321.09;4984579;28;20057;-78
2023/02/05 10:38:40;;;;;;;7.88;6.18;;;;;;;-3.59;51.74;94335.13;4988312;28;20112;-77
2023/02/05 10:41:28;;;;;;;5.07;4.57;;;;;;;-3.66;51.35;94336.97;4980482;28;20137;-79
2023/02/05 10:44:11;;;;;;;5.22;2.90;;;;;;;-4.59;52.17;94291.84;4984779;28;20417;-79
2023/02/05 10:46:38;;;;;;;7.47;6.70;;;;;;;-4.09;51.97;94310.91;4988120;28;20140;-81
2023/02/05 10:49:30;;;;;;;3.92;3.10;;;;;;;-4.17;51.20;94334.56;4987730;28;20037;-81
2023/02/05 10:51:55;;;;;;;6.10;3.17;;;;;;;-3.99;51.16;94323.44;4987948;28;20066;-80
2023/02/05 10:54:27;;;;;;;4.68;4.05;;;;;;;-4.62;52.21;94288.84;5003017;28;20718;-79
2023/02/05 10:56:52;;;;;;;6.72;5.65;;;;;;;-3.95;51.41;94309.00;4987555;28;20179;-81
2023/02/05 10:59:22;;;;;;;5.22;3.78;;;;;;;-3.90;51.14;94324.75;4985895;28;20049;-81
2023/02/05 11:01:49;;;;;;;5.15;3.92;;;;;;;-3.70;50.75;94332.41;4986663;28;20118;-81
2023/02/05 11:04:18;;;;;;;11.10;7.35;;;;;;;-3.79;49.79;94329.28;4984093;28;20037;-80
2023/02/05 11:06:51;;;;;;;7.25;5.72;;;;;;;-4.11;50.33;94330.31;4986394;28;20030;-81
2023/02/05 11:09:25;;;;;;;6.60;4.45;;;;;;;-3.58;50.71;94344.53;4982134;28;20041;-80
2023/02/05 11:11:52;;;;;;;5.22;4.72;;;;;;;-3.35;48.61;94345.72;4979750;28;20115;-80
2023/02/05 11:14:28;;;;;;;3.33;2.70;;;;;;;-4.52;49.95;94326.34;4981642;28;20034;-80
2023/02/05 11:16:54;;;;;;;2.30;2.10;;;;;;;-4.71;50.45;94313.47;4981970;28;20096;-82
2023/02/05 11:19:22;;;;;;;4.53;2.40;;;;;;;-4.71;50.28;94329.84;4985777;28;20034;-81
2023/02/05 11:22:00;;;;;;;25.27;11.57;;;;;;;-4.00;49.97;94334.84;4988486;28;20448;-79
2023/02/05 11:24:32;;;;;;;4.78;3.88;;;;;;;-3.93;49.84;94338.19;4985038;28;20045;-80
2023/02/05 11:27:12;;;;;;;5.95;4.82;;;;;;;-3.58;49.68;94328.13;4986042;28;20053;-80
2023/02/05 11:29:37;;;;;;;3.33;2.92;;;;;;;-4.01;49.43;94322.88;4998929;28;20039;-81
2023/02/05 11:32:03;;;;;;;6.50;2.60;;;;;;;-4.88;49.86;94333.91;4996302;28;20042;-81
2023/02/05 11:34:28;;;;;;;5.90;4.53;;;;;;;-4.32;49.65;94346.22;5006308;28;20030;-80
2023/02/05 11:36:56;;;;;;;6.38;5.78;;;;;;;-4.24;48.57;94333.78;4988157;28;20046;-81
2023/02/05 11:39:35;;;;;;;3.90;3.00;;;;;;;-4.58;49.78;94342.75;4983013;28;20125;-81
2023/02/05 11:42:20;;;;;;;2.80;2.47;;;;;;;-4.76;50.27;94332.25;4982436;28;20038;-82
2023/02/05 11:44:53;;;;;;;10.38;6.47;;;;;;;-5.07;50.80;94342.50;4986940;28;20053;-82